Time;durP1;ratioP1;P1;durP2;ratioP2;P2;SDS_P1;SDS_P2;PMS_P1;PMS_P2;Temp;Humidity;BMP_temperature;BMP_pressure;BME280_temperature;BME280_humidity;BME280_pressure;Samples;Min_cycle;Max_cycle;Signal;HPM_P1;HPM_P2
2023/12/12 00:00:30;;;;;;;3.25;1.77;;;12.50;99.90;;;;;;5038830;28;20452;-43
2023/12/12 00:02:56;;;;;;;2.80;1.50;;;12.50;99.90;;;;;;5037644;28;20021;-45
2023/12/12 00:05:22;;;;;;;2.83;1.48;;;12.40;99.90;;;;;;5037927;28;20076;-44
2023/12/12 00:07:48;;;;;;;3.17;1.65;;;12.50;99.90;;;;;;5037826;28;20515;-44
2023/12/12 00:10:13;;;;;;;2.80;1.60;;;12.50;99.90;;;;;;5038972;28;20110;-44
2023/12/12 00:12:39;;;;;;;2.33;1.70;;;12.40;99.90;;;;;;5038568;28;20029;-45
2023/12/12 00:15:05;;;;;;;3.22;1.48;;;12.40;99.90;;;;;;5037924;28;20057;-45
2023/12/12 00:17:31;;;;;;;2.78;1.70;;;12.40;99.90;;;;;;5038324;28;20025;-43
2023/12/12 00:19:57;;;;;;;2.50;1.40;;;12.50;99.90;;;;;;5038827;28;20030;-45
2023/12/12 00:22:22;;;;;;;3.58;1.52;;;12.50;99.90;;;;;;5037985;28;20120;-45
2023/12/12 00:24:48;;;;;;;2.67;1.48;;;12.40;99.90;;;;;;5037956;28;20503;-45
2023/12/12 00:27:14;;;;;;;3.95;1.75;;;12.40;99.90;;;;;;5038411;28;20040;-43
2023/12/12 00:29:40;;;;;;;3.22;1.70;;;12.50;99.90;;;;;;5038197;28;20029;-45
2023/12/12 00:32:06;;;;;;;2.58;1.40;;;12.40;99.90;;;;;;5037480;28;20021;-44
2023/12/12 00:34:35;;;;;;;4.53;1.60;;;12.40;99.90;;;;;;5037226;28;20172;-45
2023/12/12 00:37:01;;;;;;;2.78;1.65;;;12.40;99.90;;;;;;5037246;28;20159;-45
2023/12/12 00:39:26;;;;;;;2.67;1.27;;;12.40;99.90;;;;;;5037770;28;20108;-43
2023/12/12 00:41:52;;;;;;;3.38;1.30;;;12.40;99.90;;;;;;5038313;28;20032;-44
2023/12/12 00:44:17;;;;;;;3.60;1.42;;;12.40;99.90;;;;;;5037459;28;20025;-44
2023/12/12 00:46:43;;;;;;;3.80;1.58;;;12.40;99.90;;;;;;5037297;28;20040;-44
2023/12/12 00:49:09;;;;;;;2.80;1.27;;;12.40;99.90;;;;;;5036265;28;20037;-44
2023/12/12 00:51:34;;;;;;;4.05;1.70;;;12.40;99.90;;;;;;5035388;28;20065;-44
2023/12/12 00:54:00;;;;;;;3.85;1.90;;;12.40;99.90;;;;;;5033922;28;20029;-45
2023/12/12 00:56:26;;;;;;;3.47;1.50;;;12.40;99.90;;;;;;5034293;28;20315;-43
2023/12/12 00:58:52;;;;;;;3.85;1.35;;;12.40;99.90;;;;;;5033464;28;20140;-46
2023/12/12 01:01:18;;;;;;;2.33;1.45;;;12.40;99.90;;;;;;5034933;28;20025;-44
2023/12/12 01:03:44;;;;;;;3.72;1.67;;;12.40;99.90;;;;;;5035061;28;20116;-44
2023/12/12 01:06:21;;;;;;;3.55;1.70;;;12.40;99.90;;;;;;5035125;28;20053;-44
2023/12/12 01:08:46;;;;;;;3.42;1.58;;;12.40;99.90;;;;;;5035490;28;20051;-44
2023/12/12 01:11:13;;;;;;;2.50;1.42;;;12.40;99.90;;;;;;5035114;28;20112;-44
2023/12/12 01:13:38;;;;;;;4.10;1.70;;;12.40;99.90;;;;;;5034734;28;20021;-44
2023/12/12 01:16:04;;;;;;;1.70;1.25;;;12.40;99.90;;;;;;5034851;28;20032;-45
2023/12/12 01:18:31;;;;;;;3.40;1.65;;;12.40;99.90;;;;;;5034581;28;20057;-44
2023/12/12 01:20:57;;;;;;;2.55;1.55;;;12.40;99.90;;;;;;5035363;28;20018;-45
2023/12/12 01:23:22;;;;;;;2.65;1.40;;;12.40;99.90;;;;;;5035012;28;20041;-45
2023/12/12 01:25:48;;;;;;;4.53;1.92;;;12.40;99.90;;;;;;5034199;28;20026;-45
2023/12/12 01:28:13;;;;;;;2.65;1.50;;;12.30;99.90;;;;;;5035209;28;20491;-45
2023/12/12 01:30:39;;;;;;;2.25;1.25;;;12.30;99.90;;;;;;5033900;28;20021;-45
2023/12/12 01:33:05;;;;;;;2.45;1.23;;;12.30;99.90;;;;;;5034034;28;20044;-44
2023/12/12 01:35:30;;;;;;;2.10;1.30;;;12.30;99.90;;;;;;5033180;28;20099;-45
2023/12/12 01:37:56;;;;;;;2.92;1.42;;;12.40;99.90;;;;;;5034992;28;20467;-46
2023/12/12 01:40:22;;;;;;;2.80;1.50;;;12.40;99.90;;;;;;5033876;28;20021;-44
2023/12/12 01:42:47;;;;;;;4.25;1.50;;;12.40;99.90;;;;;;5033579;28;20434;-45
2023/12/12 01:45:13;;;;;;;2.90;1.50;;;12.30;99.90;;;;;;5033508;28;20442;-45
2023/12/12 01:47:39;;;;;;;2.78;1.50;;;12.30;99.90;;;;;;5033027;28;20030;-44
2023/12/12 01:50:06;;;;;;;2.67;1.20;;;12.30;99.90;;;;;;5033331;28;20087;-46
2023/12/12 01:52:33;;;;;;;2.30;1.50;;;12.30;99.90;;;;;;5034826;28;20255;-44
2023/12/12 01:54:59;;;;;;;2.35;1.30;;;12.40;99.90;;;;;;5033690;28;20391;-44
2023/12/12 01:57:25;;;;;;;3.42;1.55;;;12.30;99.90;;;;;;5034054;28;20022;-45
2023/12/12 01:59:51;;;;;;;3.35;1.27;;;12.30;99.90;;;;;;5034474;28;20017;-44
2023/12/12 02:02:18;;;;;;;2.72;1.17;;;12.30;99.90;;;;;;5033417;28;20365;-43
2023/12/12 02:04:47;;;;;;;2.22;1.25;;;12.30;99.90;;;;;;5033876;28;20033;-43
2023/12/12 02:07:13;;;;;;;4.90;1.60;;;12.30;99.90;;;;;;5033211;28;20030;-45
2023/12/12 02:09:40;;;;;;;2.22;1.25;;;12.30;99.90;;;;;;5033143;28;20078;-46
2023/12/12 02:12:05;;;;;;;2.45;1.17;;;12.30;99.90;;;;;;5033061;28;20110;-46
2023/12/12 02:14:33;;;;;;;2.30;1.23;;;12.30;99.90;;;;;;5033580;28;20083;-45
2023/12/12 02:16:59;;;;;;;2.30;1.38;;;12.30;99.90;;;;;;5033820;28;20024;-44
2023/12/12 02:19:24;;;;;;;2.50;1.40;;;12.30;99.90;;;;;;5032292;28;20092;-44
2023/12/12 02:21:50;;;;;;;2.25;1.23;;;12.30;99.90;;;;;;5032228;28;20387;-45
2023/12/12 02:24:16;;;;;;;3.70;1.40;;;12.30;99.90;;;;;;5033785;28;20033;-45
2023/12/12 02:26:41;;;;;;;2.13;1.20;;;12.30;99.90;;;;;;5032275;28;20064;-44
2023/12/12 02:29:08;;;;;;;1.95;1.42;;;12.30;99.90;;;;;;5032555;28;20430;-45
2023/12/12 02:31:33;;;;;;;1.45;1.05;;;12.30;99.90;;;;;;5032455;28;20121;-46
2023/12/12 02:33:59;;;;;;;2.45;1.13;;;12.30;99.90;;;;;;5032775;28;20443;-45
2023/12/12 02:36:25;;;;;;;2.35;1.17;;;12.30;99.90;;;;;;5031706;28;20033;-46
2023/12/12 02:38:50;;;;;;;2.42;1.40;;;12.30;99.90;;;;;;5032758;28;20025;-44
2023/12/12 02:41:16;;;;;;;2.08;1.30;;;12.30;99.90;;;;;;5032038;28;20451;-45
2023/12/12 02:43:41;;;;;;;2.00;1.20;;;12.30;99.90;;;;;;5032268;28;20060;-44
2023/12/12 02:46:07;;;;;;;2.13;1.05;;;12.30;99.90;;;;;;5032912;28;20537;-46
2023/12/12 02:48:33;;;;;;;1.90;1.20;;;12.30;99.90;;;;;;5032708;28;20032;-46
2023/12/12 02:50:59;;;;;;;2.38;1.20;;;12.30;99.90;;;;;;5031698;28;20471;-44
2023/12/12 02:53:25;;;;;;;2.30;1.23;;;12.30;99.90;;;;;;5032497;28;20041;-45
2023/12/12 02:55:51;;;;;;;2.40;1.15;;;12.30;99.90;;;;;;5033605;28;20029;-45
2023/12/12 02:58:16;;;;;;;2.70;1.20;;;12.40;99.90;;;;;;5032812;28;20072;-44
2023/12/12 03:00:42;;;;;;;2.47;1.10;;;12.40;99.90;;;;;;5031644;28;20025;-44
2023/12/12 03:03:07;;;;;;;1.80;1.20;;;12.40;99.90;;;;;;5031685;28;20032;-45
2023/12/12 03:05:33;;;;;;;2.35;1.30;;;12.40;99.90;;;;;;5031525;28;20026;-45
2023/12/12 03:07:59;;;;;;;2.78;1.38;;;12.50;99.90;;;;;;5031646;28;20053;-45
2023/12/12 03:10:24;;;;;;;2.25;1.20;;;12.50;99.90;;;;;;5031597;28;20039;-46
2023/12/12 03:12:50;;;;;;;2.10;1.00;;;12.50;99.90;;;;;;5031269;28;20079;-43
2023/12/12 03:15:15;;;;;;;2.35;1.13;;;12.50;99.90;;;;;;5031429;28;20474;-43
2023/12/12 03:17:41;;;;;;;3.10;1.15;;;12.60;99.90;;;;;;5031269;28;20029;-44
2023/12/12 03:20:07;;;;;;;3.03;1.08;;;12.60;99.90;;;;;;5031355;28;20073;-44
2023/12/12 03:22:33;;;;;;;2.65;1.17;;;12.60;99.90;;;;;;5031209;28;20120;-44
2023/12/12 03:25:00;;;;;;;2.13;0.98;;;12.60;99.90;;;;;;5031359;28;20471;-44
2023/12/12 03:27:25;;;;;;;2.40;1.10;;;12.60;99.90;;;;;;5031315;28;20079;-44
2023/12/12 03:29:51;;;;;;;2.67;1.20;;;12.60;99.90;;;;;;5031201;28;20037;-43
2023/12/12 03:32:16;;;;;;;2.40;1.10;;;12.60;99.90;;;;;;5031220;28;20068;-43
2023/12/12 03:34:42;;;;;;;2.45;1.10;;;12.60;99.90;;;;;;5031206;28;20092;-45
2023/12/12 03:37:08;;;;;;;2.25;1.35;;;12.60;99.90;;;;;;5031535;28;20033;-44
2023/12/12 03:39:35;;;;;;;2.33;1.13;;;12.60;99.90;;;;;;5031226;28;20472;-45
2023/12/12 03:42:01;;;;;;;2.67;1.10;;;12.60;99.90;;;;;;5031207;28;20391;-46
2023/12/12 03:44:26;;;;;;;1.88;1.00;;;12.60;99.90;;;;;;5031237;28;20026;-45
2023/12/12 03:46:52;;;;;;;1.77;0.90;;;12.60;99.90;;;;;;5030998;28;20029;-44
2023/12/12 03:49:17;;;;;;;2.00;1.08;;;12.60;99.90;;;;;;5030873;28;20028;-45
2023/12/12 03:51:43;;;;;;;2.78;1.10;;;12.60;99.90;;;;;;5032250;28;20365;-44
2023/12/12 03:54:09;;;;;;;2.85;1.25;;;12.60;99.90;;;;;;5031392;28;20084;-44
2023/12/12 03:56:35;;;;;;;2.22;1.20;;;12.60;99.90;;;;;;5031554;28;20021;-45
2023/12/12 03:59:01;;;;;;;3.53;1.08;;;12.60;99.90;;;;;;5032232;28;20013;-43
2023/12/12 04:01:26;;;;;;;2.78;1.00;;;12.60;99.90;;;;;;5032112;28;20535;-44
2023/12/12 04:03:52;;;;;;;3.40;1.13;;;12.60;99.90;;;;;;5031639;28;20106;-45
2023/12/12 04:06:17;;;;;;;1.95;0.85;;;12.60;99.90;;;;;;5032252;28;20041;-46
2023/12/12 04:08:43;;;;;;;1.92;1.00;;;12.60;99.90;;;;;;5031995;28;20030;-43
2023/12/12 04:11:09;;;;;;;2.05;1.20;;;12.60;99.90;;;;;;5032172;28;20076;-44
2023/12/12 04:13:34;;;;;;;1.63;0.90;;;12.60;99.90;;;;;;5033238;28;20025;-45
2023/12/12 04:16:00;;;;;;;1.92;0.90;;;12.60;99.90;;;;;;5032839;28;20526;-44
2023/12/12 04:18:25;;;;;;;3.15;1.00;;;12.50;99.90;;;;;;5030732;28;20025;-45
2023/12/12 04:20:51;;;;;;;3.03;1.20;;;12.50;99.90;;;;;;5031999;28;20076;-44
2023/12/12 04:23:16;;;;;;;2.72;1.27;;;12.50;99.90;;;;;;5031093;28;20115;-45
2023/12/12 04:25:42;;;;;;;2.53;1.02;;;12.50;99.90;;;;;;5032801;28;20033;-43
2023/12/12 04:28:08;;;;;;;2.92;1.00;;;12.50;99.90;;;;;;5035107;28;20029;-45
2023/12/12 04:30:34;;;;;;;1.88;1.00;;;12.50;99.90;;;;;;5035395;28;20025;-44
2023/12/12 04:32:59;;;;;;;2.22;1.00;;;12.50;99.90;;;;;;5034851;28;20040;-41
2023/12/12 04:35:25;;;;;;;1.77;0.82;;;12.50;99.90;;;;;;5035709;28;20036;-44
2023/12/12 04:37:51;;;;;;;3.05;1.20;;;12.50;99.90;;;;;;5033116;28;20030;-45
2023/12/12 04:40:16;;;;;;;2.53;1.15;;;12.50;99.90;;;;;;5034923;28;20040;-45
2023/12/12 04:42:42;;;;;;;2.30;0.98;;;12.50;99.90;;;;;;5034881;28;20055;-44
2023/12/12 04:45:08;;;;;;;2.22;1.20;;;12.50;99.90;;;;;;5034346;28;20030;-45
2023/12/12 04:47:34;;;;;;;1.67;1.00;;;12.40;99.90;;;;;;5035006;28;20037;-45
2023/12/12 04:50:00;;;;;;;2.78;1.20;;;12.40;99.90;;;;;;5035346;28;20506;-45
2023/12/12 04:52:25;;;;;;;2.03;1.13;;;12.40;99.90;;;;;;5034934;28;20464;-46
2023/12/12 04:54:51;;;;;;;3.10;1.25;;;12.40;99.90;;;;;;5035554;28;20030;-44
2023/12/12 04:57:17;;;;;;;2.08;0.90;;;12.40;99.90;;;;;;5035022;28;20025;-43
2023/12/12 04:59:42;;;;;;;1.67;0.80;;;12.40;99.90;;;;;;5034907;28;20025;-44
2023/12/12 05:02:08;;;;;;;1.73;1.05;;;12.40;99.90;;;;;;5034920;28;20231;-45
2023/12/12 05:04:34;;;;;;;2.95;1.35;;;12.40;99.90;;;;;;5034966;28;20030;-45
2023/12/12 05:06:59;;;;;;;2.63;1.02;;;12.40;99.90;;;;;;5034815;28;20029;-44
2023/12/12 05:09:25;;;;;;;1.52;0.90;;;12.40;99.90;;;;;;5034509;28;20032;-46
2023/12/12 05:11:50;;;;;;;2.55;1.15;;;12.40;99.90;;;;;;5035650;28;20079;-45
2023/12/12 05:14:16;;;;;;;1.85;0.93;;;12.40;99.90;;;;;;5034012;28;20057;-44
2023/12/12 05:16:41;;;;;;;2.28;0.93;;;12.40;99.90;;;;;;5033712;28;20387;-45
2023/12/12 05:19:07;;;;;;;1.15;0.85;;;12.40;99.90;;;;;;5034052;28;20500;-44
2023/12/12 05:21:33;;;;;;;2.63;1.20;;;12.40;99.90;;;;;;5034134;28;20021;-46
2023/12/12 05:23:59;;;;;;;2.08;1.20;;;12.40;99.90;;;;;;5034337;28;20479;-45
2023/12/12 05:26:27;;;;;;;2.00;1.08;;;12.30;99.90;;;;;;5034857;28;20080;-44
2023/12/12 05:28:53;;;;;;;1.90;1.05;;;12.30;99.90;;;;;;5035460;28;20113;-45
2023/12/12 05:31:19;;;;;;;2.78;1.02;;;12.30;99.90;;;;;;5034146;28;20029;-44
2023/12/12 05:33:46;;;;;;;1.45;0.90;;;12.30;99.90;;;;;;5034419;28;20120;-43
2023/12/12 05:36:12;;;;;;;2.13;0.80;;;12.30;99.90;;;;;;5033499;28;20029;-44
2023/12/12 05:38:38;;;;;;;1.92;1.00;;;12.30;99.90;;;;;;5033875;28;20549;-44
2023/12/12 05:41:03;;;;;;;4.15;1.13;;;12.30;99.90;;;;;;5034325;28;20026;-46
2023/12/12 05:43:29;;;;;;;2.85;1.23;;;12.30;99.90;;;;;;5033593;28;20444;-46
2023/12/12 05:45:55;;;;;;;2.78;1.20;;;12.30;99.90;;;;;;5033827;28;20021;-44
2023/12/12 05:48:20;;;;;;;1.77;1.00;;;12.30;99.90;;;;;;5033697;28;20100;-44
2023/12/12 05:50:46;;;;;;;1.88;0.93;;;12.30;99.90;;;;;;5032272;28;20140;-43
2023/12/12 05:53:12;;;;;;;1.83;1.13;;;12.30;99.90;;;;;;5033731;28;20101;-43
2023/12/12 05:55:37;;;;;;;1.45;0.98;;;12.30;99.90;;;;;;5032914;28;20040;-45
2023/12/12 05:58:04;;;;;;;3.33;1.30;;;12.30;99.90;;;;;;5032767;28;20044;-44
2023/12/12 06:00:30;;;;;;;2.67;1.30;;;12.30;99.90;;;;;;5033713;28;20028;-45
2023/12/12 06:02:55;;;;;;;2.55;1.15;;;12.20;99.90;;;;;;5033648;28;20021;-45
2023/12/12 06:05:21;;;;;;;2.75;1.08;;;12.20;99.90;;;;;;5033197;28;20072;-44
2023/12/12 06:07:47;;;;;;;4.30;1.10;;;12.20;99.90;;;;;;5032767;28;20040;-44
2023/12/12 06:10:12;;;;;;;2.88;1.35;;;12.20;99.90;;;;;;5033288;28;20068;-43
2023/12/12 06:12:39;;;;;;;1.70;1.15;;;12.20;99.90;;;;;;5033707;28;20036;-45
2023/12/12 06:15:09;;;;;;;1.73;1.00;;;12.20;99.90;;;;;;5032763;28;20033;-45
2023/12/12 06:17:35;;;;;;;2.78;1.10;;;12.20;99.90;;;;;;5033782;28;20502;-45
2023/12/12 06:20:01;;;;;;;2.55;1.30;;;12.20;99.90;;;;;;5033125;28;20069;-43
2023/12/12 06:22:26;;;;;;;1.63;1.10;;;12.20;99.90;;;;;;5033592;28;20487;-45
2023/12/12 06:24:52;;;;;;;1.73;1.33;;;12.20;99.90;;;;;;5033446;28;20025;-46
2023/12/12 06:27:18;;;;;;;2.13;1.08;;;12.20;99.90;;;;;;5032124;28;20541;-45
2023/12/12 06:29:43;;;;;;;2.33;1.30;;;12.20;99.90;;;;;;5034322;28;20428;-45
2023/12/12 06:32:09;;;;;;;2.65;1.17;;;12.20;99.90;;;;;;5032543;28;20025;-44
2023/12/12 06:34:34;;;;;;;1.50;1.08;;;12.20;99.90;;;;;;5033736;28;20474;-44
2023/12/12 06:37:00;;;;;;;1.65;1.20;;;12.20;99.90;;;;;;5032557;28;20025;-45
2023/12/12 06:39:26;;;;;;;2.75;1.15;;;12.20;99.90;;;;;;5031408;28;20072;-45
2023/12/12 06:41:51;;;;;;;2.28;1.30;;;12.20;99.90;;;;;;5032514;28;20018;-44
2023/12/12 06:44:17;;;;;;;2.20;1.38;;;12.10;99.90;;;;;;5031884;28;20104;-45
2023/12/12 06:46:42;;;;;;;2.90;1.30;;;12.20;99.90;;;;;;5031742;28;20445;-43
2023/12/12 06:49:09;;;;;;;2.30;1.33;;;12.10;99.90;;;;;;5032890;28;20033;-45
2023/12/12 06:51:35;;;;;;;1.92;1.30;;;12.10;99.90;;;;;;5032441;28;20113;-45
2023/12/12 06:54:03;;;;;;;3.05;1.48;;;12.10;99.90;;;;;;5031815;28;20487;-45
2023/12/12 06:56:28;;;;;;;2.03;1.20;;;12.20;99.90;;;;;;5032033;28;20018;-44
2023/12/12 06:58:54;;;;;;;3.47;1.30;;;12.10;99.90;;;;;;5032633;28;20022;-45
2023/12/12 07:01:20;;;;;;;2.42;1.25;;;12.10;99.90;;;;;;5032855;28;20396;-45
2023/12/12 07:03:45;;;;;;;1.70;1.20;;;12.20;99.90;;;;;;5032401;28;20367;-44
2023/12/12 07:06:11;;;;;;;1.00;0.80;;;12.10;99.90;;;;;;5032010;28;20422;-45
2023/12/12 07:08:36;;;;;;;3.28;1.10;;;12.10;99.90;;;;;;5031976;28;20021;-44
2023/12/12 07:11:02;;;;;;;1.98;1.30;;;12.10;99.90;;;;;;5031824;28;20029;-45
2023/12/12 07:13:28;;;;;;;1.45;0.93;;;12.10;99.90;;;;;;5031949;28;20088;-45
2023/12/12 07:15:53;;;;;;;1.85;1.00;;;12.10;99.90;;;;;;5031391;28;20021;-43
2023/12/12 07:18:19;;;;;;;2.13;1.00;;;12.10;99.90;;;;;;5031537;28;20078;-44
2023/12/12 07:20:46;;;;;;;1.75;1.05;;;12.10;99.90;;;;;;5031534;28;20060;-44
2023/12/12 07:23:12;;;;;;;1.88;0.90;;;12.10;99.90;;;;;;5032261;28;20056;-44
2023/12/12 07:25:38;;;;;;;2.75;1.10;;;12.10;99.90;;;;;;5031866;28;20061;-44
2023/12/12 07:28:04;;;;;;;1.95;1.10;;;12.10;99.90;;;;;;5032309;28;20029;-45
2023/12/12 07:30:30;;;;;;;2.08;1.17;;;12.10;99.90;;;;;;5031374;28;20021;-43
2023/12/12 07:32:56;;;;;;;2.05;1.13;;;12.10;99.90;;;;;;5031311;28;20071;-45
2023/12/12 07:35:23;;;;;;;3.90;1.30;;;12.10;99.90;;;;;;5031236;28;20036;-44
2023/12/12 07:37:48;;;;;;;3.67;1.13;;;12.10;99.90;;;;;;5031691;28;20036;-45
2023/12/12 07:40:14;;;;;;;1.48;1.00;;;12.10;99.90;;;;;;5030210;28;20021;-43
2023/12/12 07:42:39;;;;;;;1.63;1.00;;;12.10;99.90;;;;;;5031579;28;20025;-45
2023/12/12 07:45:07;;;;;;;1.45;0.95;;;12.10;99.90;;;;;;5032007;28;20399;-44
2023/12/12 07:47:33;;;;;;;1.55;1.00;;;12.10;99.90;;;;;;5031236;28;20029;-43
2023/12/12 07:49:59;;;;;;;1.55;1.13;;;12.10;99.90;;;;;;5031944;28;20427;-45
2023/12/12 07:52:25;;;;;;;1.45;1.05;;;12.10;99.90;;;;;;5031153;28;20387;-45
2023/12/12 07:54:51;;;;;;;2.22;1.08;;;12.20;99.90;;;;;;5032074;28;20021;-44
2023/12/12 07:57:17;;;;;;;1.77;1.10;;;12.20;99.90;;;;;;5030989;28;20037;-43
2023/12/12 07:59:43;;;;;;;1.48;0.90;;;12.30;99.90;;;;;;5034286;28;20036;-43
2023/12/12 08:02:08;;;;;;;2.53;1.13;;;12.40;99.90;;;;;;5036461;28;20021;-44
2023/12/12 08:04:35;;;;;;;1.60;1.02;;;12.40;99.90;;;;;;5036855;28;20036;-43
2023/12/12 08:07:01;;;;;;;1.38;0.90;;;12.50;99.90;;;;;;5035997;28;20099;-44
2023/12/12 08:09:28;;;;;;;1.73;1.02;;;12.60;99.90;;;;;;5035985;28;20463;-44
2023/12/12 08:11:54;;;;;;;2.08;1.23;;;12.70;99.90;;;;;;5035855;28;20029;-45
2023/12/12 08:14:20;;;;;;;2.13;1.30;;;12.70;99.90;;;;;;5035520;28;20391;-44
2023/12/12 08:16:46;;;;;;;1.77;1.10;;;12.80;99.90;;;;;;5036012;28;20033;-43
2023/12/12 08:19:11;;;;;;;5.43;2.30;;;12.90;99.90;;;;;;5036156;28;20022;-44
2023/12/12 08:21:37;;;;;;;6.85;2.67;;;13.00;99.90;;;;;;5035265;28;20029;-45
2023/12/12 08:24:03;;;;;;;4.72;2.17;;;13.00;99.90;;;;;;5034038;28;20438;-44
2023/12/12 08:26:28;;;;;;;3.90;2.00;;;13.10;99.90;;;;;;5035212;28;20026;-44
2023/12/12 08:28:55;;;;;;;3.30;1.65;;;13.20;99.90;;;;;;5035004;28;20022;-44
2023/12/12 08:31:21;;;;;;;5.10;2.10;;;13.20;99.90;;;;;;5034639;28;20466;-44
2023/12/12 08:33:46;;;;;;;3.35;2.00;;;13.30;99.90;;;;;;5035558;28;20033;-45
2023/12/12 08:36:12;;;;;;;4.13;2.00;;;13.30;99.90;;;;;;5034819;28;20030;-42
2023/12/12 08:38:38;;;;;;;3.72;1.98;;;13.40;99.90;;;;;;5034660;28;20096;-43
2023/12/12 08:41:04;;;;;;;4.35;2.20;;;13.50;99.90;;;;;;5034768;28;20014;-44
2023/12/12 08:43:30;;;;;;;3.55;2.08;;;13.50;99.90;;;;;;5035460;28;20056;-44
2023/12/12 08:45:56;;;;;;;3.67;1.88;;;13.60;99.90;;;;;;5034771;28;20064;-41
2023/12/12 08:48:23;;;;;;;4.55;2.25;;;13.60;99.90;;;;;;5034349;28;20029;-43
2023/12/12 08:50:50;;;;;;;3.60;1.60;;;13.60;99.90;;;;;;5034958;28;20022;-43
2023/12/12 08:53:16;;;;;;;4.10;2.25;;;13.70;99.90;;;;;;5034264;28;20021;-44
2023/12/12 08:55:42;;;;;;;3.38;2.00;;;13.70;99.90;;;;;;5034092;28;20024;-44
2023/12/12 08:58:08;;;;;;;3.45;1.80;;;13.70;99.90;;;;;;5034292;28;20033;-44
2023/12/12 09:00:34;;;;;;;4.28;2.03;;;13.80;99.90;;;;;;5034076;28;20021;-42
2023/12/12 09:02:59;;;;;;;3.22;1.90;;;13.80;99.90;;;;;;5034044;28;20383;-43
2023/12/12 09:05:25;;;;;;;3.38;1.65;;;13.80;99.90;;;;;;5034119;28;20036;-43
2023/12/12 09:07:51;;;;;;;3.47;1.77;;;13.90;99.90;;;;;;5033640;28;20032;-42
2023/12/12 09:10:17;;;;;;;4.40;1.88;;;13.90;99.90;;;;;;5033087;28;20119;-44
2023/12/12 09:12:43;;;;;;;3.40;2.20;;;13.90;99.90;;;;;;5033863;28;20491;-41
2023/12/12 09:15:09;;;;;;;4.57;1.90;;;13.90;99.90;;;;;;5033706;28;20025;-44
2023/12/12 09:17:35;;;;;;;2.75;1.83;;;14.00;99.90;;;;;;5034656;28;20017;-44
2023/12/12 09:20:01;;;;;;;3.28;2.03;;;14.00;99.90;;;;;;5034383;28;20030;-43
2023/12/12 09:22:27;;;;;;;3.33;1.67;;;14.00;99.90;;;;;;5034944;28;20411;-44
2023/12/12 09:24:54;;;;;;;2.95;1.80;;;14.00;99.90;;;;;;5035103;28;20113;-43
2023/12/12 09:27:20;;;;;;;4.18;2.00;;;14.00;99.90;;;;;;5034695;28;20172;-43
2023/12/12 09:29:45;;;;;;;4.03;2.17;;;14.00;99.90;;;;;;5033920;28;20112;-44
2023/12/12 09:32:12;;;;;;;3.85;1.90;;;14.10;99.90;;;;;;5034428;28;20057;-43
2023/12/12 09:34:38;;;;;;;2.45;1.63;;;14.10;99.90;;;;;;5033350;28;20066;-44
2023/12/12 09:37:03;;;;;;;2.97;1.67;;;14.10;99.90;;;;;;5033233;28;20053;-44
2023/12/12 09:39:29;;;;;;;3.75;1.90;;;14.10;99.90;;;;;;5033132;28;20432;-44
2023/12/12 09:41:59;;;;;;;2.70;1.50;;;14.10;99.90;;;;;;5033397;28;20067;-43
2023/12/12 09:44:28;;;;;;;4.18;1.67;;;14.10;99.80;;;;;;5033177;28;20021;-42
2023/12/12 09:46:54;;;;;;;4.03;1.80;;;14.20;99.80;;;;;;5033915;28;20479;-43
2023/12/12 09:49:21;;;;;;;2.88;1.60;;;14.20;99.80;;;;;;5034717;28;20048;-42
2023/12/12 09:51:52;;;;;;;2.55;1.33;;;14.20;99.70;;;;;;5034499;28;20021;-43
2023/12/12 09:54:18;;;;;;;2.17;1.58;;;14.20;99.70;;;;;;5034468;28;20053;-44
2023/12/12 09:56:46;;;;;;;2.70;1.60;;;14.30;99.70;;;;;;5032856;28;20479;-43
2023/12/12 09:59:12;;;;;;;2.03;1.30;;;14.20;99.60;;;;;;5033851;28;20395;-44
2023/12/12 10:01:41;;;;;;;2.83;1.60;;;14.30;99.60;;;;;;5033671;28;20022;-42
2023/12/12 10:04:09;;;;;;;2.45;1.20;;;14.30;99.60;;;;;;5033507;28;20479;-43
2023/12/12 10:06:41;;;;;;;2.95;1.67;;;14.30;99.50;;;;;;5033431;28;20115;-43
2023/12/12 10:09:07;;;;;;;2.22;1.17;;;14.30;99.50;;;;;;5032660;28;20033;-44
2023/12/12 10:11:33;;;;;;;2.85;1.45;;;14.40;99.50;;;;;;5033145;28;20037;-44
2023/12/12 10:14:00;;;;;;;3.00;1.55;;;14.40;99.40;;;;;;5033237;28;20057;-43
2023/12/12 10:16:26;;;;;;;2.22;1.40;;;14.40;99.40;;;;;;5032407;28;20033;-44
2023/12/12 10:18:53;;;;;;;1.95;1.30;;;14.40;99.40;;;;;;5033649;28;20041;-43
2023/12/12 10:21:21;;;;;;;2.58;1.40;;;14.40;99.30;;;;;;5033759;28;20591;-43
2023/12/12 10:23:49;;;;;;;2.38;1.17;;;14.40;99.30;;;;;;5033144;28;20120;-44
2023/12/12 10:26:21;;;;;;;2.85;1.60;;;14.50;99.30;;;;;;5032868;28;20027;-43
2023/12/12 10:28:47;;;;;;;2.97;1.60;;;14.50;99.30;;;;;;5032117;28;20468;-43
2023/12/12 10:31:13;;;;;;;2.05;1.20;;;14.50;99.30;;;;;;5032768;28;20043;-43
2023/12/12 10:33:38;;;;;;;1.85;1.13;;;14.50;99.30;;;;;;5032685;28;20022;-42
2023/12/12 10:36:08;;;;;;;2.33;1.48;;;14.50;99.20;;;;;;5032068;28;20490;-44
2023/12/12 10:38:35;;;;;;;2.20;1.20;;;14.50;99.20;;;;;;5033117;28;20025;-43
2023/12/12 10:41:15;;;;;;;2.53;1.40;;;14.50;99.20;;;;;;5032622;28;20018;-43
2023/12/12 10:43:43;;;;;;;2.90;1.48;;;14.50;99.20;;;;;;5033724;28;20017;-44
2023/12/12 10:46:13;;;;;;;2.88;1.40;;;14.50;99.10;;;;;;5032190;28;20021;-42
2023/12/12 10:48:49;;;;;;;2.28;1.30;;;14.50;99.10;;;;;;5032267;28;20093;-42
2023/12/12 10:51:17;;;;;;;2.08;1.20;;;14.60;99.10;;;;;;5032079;28;20029;-44
2023/12/12 10:53:45;;;;;;;2.55;1.20;;;14.60;99.10;;;;;;5033424;28;20120;-44
2023/12/12 10:56:13;;;;;;;3.58;1.20;;;14.60;99.10;;;;;;5032337;28;20092;-43
2023/12/12 10:58:41;;;;;;;1.88;1.00;;;14.60;99.00;;;;;;5032346;28;20022;-39
2023/12/12 11:01:09;;;;;;;2.28;1.13;;;14.60;99.00;;;;;;5032256;28;20416;-44
2023/12/12 11:03:36;;;;;;;2.17;1.25;;;14.60;99.00;;;;;;5032065;28;20103;-44
2023/12/12 11:06:05;;;;;;;2.83;1.30;;;14.60;99.00;;;;;;5032621;28;20025;-43
2023/12/12 11:08:31;;;;;;;1.92;0.90;;;14.60;99.00;;;;;;5031868;28;20179;-44
2023/12/12 11:11:00;;;;;;;3.58;1.30;;;14.60;99.00;;;;;;5031586;28;20543;-43
2023/12/12 11:13:31;;;;;;;1.83;1.10;;;14.70;99.00;;;;;;5032420;28;20088;-44
2023/12/12 11:15:59;;;;;;;1.70;0.95;;;14.70;98.90;;;;;;5032476;28;20071;-41
2023/12/12 11:18:26;;;;;;;2.45;1.33;;;14.70;98.90;;;;;;5032005;28;20412;-41
2023/12/12 11:20:52;;;;;;;1.35;1.00;;;14.70;98.90;;;;;;5031258;28;20507;-41
2023/12/12 11:23:53;;;;;;;1.48;1.00;;;14.70;98.90;;;;;;5031658;28;20049;-44
2023/12/12 11:26:22;;;;;;;1.98;1.27;;;14.70;98.90;;;;;;5032069;28;20026;-43
2023/12/12 11:28:48;;;;;;;2.05;1.08;;;14.70;98.80;;;;;;5031915;28;20472;-44
2023/12/12 11:31:59;;;;;;;3.08;1.30;;;14.70;98.90;;;;;;5031100;28;20040;-44
2023/12/12 11:34:25;;;;;;;2.25;1.15;;;14.70;98.80;;;;;;5030904;28;20044;-44
2023/12/12 11:36:52;;;;;;;2.17;1.20;;;14.70;98.80;;;;;;5032588;28;20018;-43
2023/12/12 11:39:31;;;;;;;1.98;1.23;;;14.80;98.80;;;;;;5032479;28;20044;-44
2023/12/12 11:41:59;;;;;;;2.22;1.30;;;14.80;98.80;;;;;;5032490;28;20075;-44
2023/12/12 11:44:39;;;;;;;2.70;1.10;;;14.80;98.70;;;;;;5032431;28;20113;-44
2023/12/12 11:47:05;;;;;;;1.85;1.20;;;14.80;98.70;;;;;;5031539;28;20115;-44
2023/12/12 11:49:30;;;;;;;1.70;0.95;;;14.80;98.70;;;;;;5031985;28;20025;-42
2023/12/12 11:51:56;;;;;;;1.20;0.90;;;14.80;98.60;;;;;;5031384;28;20357;-41
2023/12/12 11:54:23;;;;;;;1.60;0.88;;;14.80;98.60;;;;;;5031044;28;20031;-41
2023/12/12 11:56:58;;;;;;;1.30;0.90;;;14.90;98.60;;;;;;5031053;28;20026;-42
2023/12/12 11:59:25;;;;;;;1.73;1.00;;;14.90;98.60;;;;;;5032781;28;20099;-44
2023/12/12 12:01:51;;;;;;;1.90;0.98;;;14.90;98.60;;;;;;5031178;28;20475;-44
2023/12/12 12:04:17;;;;;;;2.92;0.90;;;14.90;98.60;;;;;;5030976;28;20033;-43
2023/12/12 12:06:44;;;;;;;1.20;0.80;;;14.90;98.50;;;;;;5030859;28;20037;-43
2023/12/12 12:09:11;;;;;;;1.92;1.00;;;14.90;98.50;;;;;;5030921;28;20025;-43
2023/12/12 12:11:43;;;;;;;1.45;0.93;;;14.90;98.50;;;;;;5031181;28;20131;-44
2023/12/12 12:14:11;;;;;;;1.20;1.00;;;14.90;98.50;;;;;;5031906;28;20553;-43
2023/12/12 12:16:37;;;;;;;1.40;0.90;;;15.00;98.40;;;;;;5028159;28;20037;-44
2023/12/12 12:19:29;;;;;;;1.85;1.10;;;15.00;98.40;;;;;;5024866;28;20025;-44
2023/12/12 12:21:55;;;;;;;4.25;1.10;;;15.00;98.60;;;;;;5025474;28;20045;-42
2023/12/12 12:24:22;;;;;;;1.85;1.02;;;15.00;98.60;;;;;;5012888;28;20089;-45
2023/12/12 12:26:47;;;;;;;1.30;0.90;;;15.00;98.70;;;;;;5012873;28;20022;-44
2023/12/12 12:29:13;;;;;;;1.50;0.90;;;15.00;98.80;;;;;;5012672;28;20041;-44
2023/12/12 12:31:39;;;;;;;2.63;1.00;;;15.10;99.20;;;;;;5010950;28;20053;-43
2023/12/12 12:34:23;;;;;;;1.88;1.00;;;15.10;98.90;;;;;;5011806;28;20399;-45
2023/12/12 12:36:51;;;;;;;1.67;1.10;;;15.10;99.00;;;;;;5013050;28;20029;-43
2023/12/12 12:39:17;;;;;;;1.88;1.02;;;15.10;99.00;;;;;;5012284;28;20097;-44
2023/12/12 12:41:52;;;;;;;2.03;1.15;;;15.10;99.00;;;;;;5012923;28;20061;-44
2023/12/12 12:44:18;;;;;;;1.38;0.80;;;15.10;99.00;;;;;;5012231;28;20062;-44